Time;durP1;ratioP1;P1;durP2;ratioP2;P2;SDS_P1;SDS_P2;PMS_P1;PMS_P2;Temp;Humidity;BMP_temperature;BMP_pressure;BME280_temperature;BME280_humidity;BME280_pressure;Samples;Min_cycle;Max_cycle;Signal;HPM_P1;HPM_P2
2023/08/30 00:04:32;;;;;;;1.95;1.40;;;18.10;99.90;;;16.74;100.00;98909.03;10279426;28;99064;-85
2023/08/30 00:09:36;;;;;;;3.58;1.75;;;18.00;99.90;;;16.68;100.00;98909.16;10289739;28;97096;-86
2023/08/30 00:14:39;;;;;;;1.77;1.52;;;18.00;99.90;;;16.53;100.00;98912.34;10292982;28;96853;-85
2023/08/30 00:19:43;;;;;;;2.15;1.70;;;17.80;99.90;;;16.42;100.00;98914.00;10270622;28;98756;-85
2023/08/30 00:24:46;;;;;;;4.05;1.92;;;17.70;99.90;;;16.36;100.00;98925.66;10273052;28;98958;-86
2023/08/30 00:29:50;;;;;;;3.08;1.85;;;17.60;99.90;;;16.25;100.00;98910.41;10294732;28;97438;-86
2023/08/30 00:34:54;;;;;;;2.60;2.30;;;17.50;99.90;;;16.11;100.00;98906.34;10277140;28;98940;-86
2023/08/30 00:39:59;;;;;;;3.45;3.15;;;17.40;99.90;;;16.01;100.00;98909.63;10270129;28;98408;-86
2023/08/30 00:45:04;;;;;;;5.18;3.72;;;17.30;99.90;;;15.93;100.00;98907.31;10278954;28;98191;-87
2023/08/30 00:50:09;;;;;;;3.60;3.25;;;17.20;99.90;;;15.87;100.00;98919.78;10287554;28;97470;-86
2023/08/30 00:55:12;;;;;;;5.55;4.20;;;17.00;99.90;;;15.87;100.00;98924.31;10267380;28;97174;-87
2023/08/30 01:00:17;;;;;;;5.78;5.10;;;17.00;99.90;;;15.82;100.00;98916.97;10263140;28;98570;-87
2023/08/30 01:05:20;;;;;;;6.68;6.07;;;17.00;99.90;;;15.81;100.00;98925.25;10258674;28;98596;-88
2023/08/30 01:10:47;;;;;;;9.15;8.25;;;17.00;99.90;;;15.86;100.00;98934.22;10257281;28;100365;-86
2023/08/30 01:15:54;;;;;;;8.77;7.88;;;17.00;99.90;;;15.87;100.00;98925.13;10294959;28;96892;-87
2023/08/30 01:21:00;;;;;;;8.15;7.30;;;17.00;99.90;;;15.89;100.00;98923.03;10283468;28;98655;-86
2023/08/30 01:26:20;;;;;;;8.57;7.22;;;17.00;99.90;;;15.89;100.00;98927.56;10262307;28;98543;-87
2023/08/30 01:31:25;;;;;;;8.68;7.78;;;17.00;99.90;;;15.88;100.00;98923.25;10271795;28;98425;-86
2023/08/30 01:36:31;;;;;;;7.82;7.10;;;17.00;99.90;;;15.87;100.00;98927.81;10270951;28;96992;-83
2023/08/30 01:41:36;;;;;;;8.00;6.68;;;17.00;99.90;;;15.83;100.00;98917.78;10290850;28;98580;-89
2023/08/30 01:46:45;;;;;;;7.88;6.72;;;17.00;99.90;;;15.79;100.00;98928.16;10250372;28;97892;-91
2023/08/30 01:51:51;;;;;;;9.50;7.80;;;16.90;99.90;;;15.76;100.00;98929.44;10265215;28;98395;-91
2023/08/30 01:56:55;;;;;;;9.65;8.60;;;16.90;99.90;;;15.74;100.00;98934.22;10265857;28;98540;-91
2023/08/30 02:02:03;;;;;;;10.50;9.32;;;16.90;99.90;;;15.75;100.00;98937.69;10238048;28;97581;-90
2023/08/30 02:07:20;;;;;;;11.90;10.70;;;16.90;99.90;;;15.73;100.00;98932.59;10267821;28;98010;-89
2023/08/30 02:12:26;;;;;;;12.07;10.05;;;16.90;99.90;;;15.72;100.00;98936.31;10284050;28;98010;-93
2023/08/30 02:17:30;;;;;;;11.82;10.63;;;16.90;99.90;;;15.73;100.00;98940.63;10274521;28;98139;-90
2023/08/30 02:22:34;;;;;;;10.60;9.50;;;16.90;99.90;;;15.73;100.00;98939.81;10267113;28;98499;-90
2023/08/30 02:27:38;;;;;;;10.23;8.25;;;16.90;99.90;;;15.77;100.00;98932.91;10268520;28;96901;-91
2023/08/30 02:32:41;;;;;;;9.13;7.13;;;16.90;99.90;;;15.79;100.00;98946.91;10275447;28;100063;-90
2023/08/30 02:37:45;;;;;;;8.48;6.72;;;17.00;99.90;;;15.78;100.00;98940.75;10292446;28;96692;-91
2023/08/30 02:42:48;;;;;;;7.75;6.18;;;17.00;99.90;;;15.77;100.00;98941.78;10278621;28;96650;-90
2023/08/30 02:47:56;;;;;;;9.98;6.57;;;17.00;99.90;;;15.73;100.00;98950.53;10274779;28;97228;-89
2023/08/30 02:53:00;;;;;;;7.68;5.97;;;17.00;99.90;;;15.66;100.00;98945.28;10294209;28;97546;-90
2023/08/30 02:58:04;;;;;;;7.03;5.95;;;16.90;99.90;;;15.61;100.00;98946.97;10259737;28;96570;-90
2023/08/30 03:03:08;;;;;;;9.13;6.68;;;16.90;99.90;;;15.55;100.00;98959.44;10223998;28;96722;-91
2023/08/30 03:08:15;;;;;;;9.15;7.05;;;16.80;99.90;;;15.53;100.00;98950.78;10283067;28;96556;-90
2023/08/30 03:13:18;;;;;;;10.60;7.35;;;16.80;99.90;;;15.52;100.00;98952.66;10303548;28;96910;-90
2023/08/30 03:18:22;;;;;;;11.57;8.70;;;16.80;99.90;;;15.47;100.00;98952.56;10303043;28;96435;-90
2023/08/30 03:23:26;;;;;;;11.80;8.27;;;16.70;99.90;;;15.43;100.00;98953.22;10284201;28;96891;-90
2023/08/30 03:28:30;;;;;;;10.43;7.75;;;16.60;99.90;;;15.40;100.00;98953.69;10287985;28;96913;-92
2023/08/30 03:33:33;;;;;;;14.35;8.48;;;16.60;99.90;;;15.38;100.00;98948.56;10287890;28;96541;-91
2023/08/30 03:38:38;;;;;;;11.55;8.40;;;16.60;99.90;;;15.32;100.00;98960.19;10302400;28;96653;-90
2023/08/30 03:43:41;;;;;;;11.48;8.23;;;16.50;99.90;;;15.29;100.00;98952.59;10302402;28;96513;-93
2023/08/30 03:48:45;;;;;;;12.07;8.20;;;16.50;99.90;;;15.33;100.00;98955.66;10259303;28;98181;-92
2023/08/30 03:53:49;;;;;;;12.55;8.00;;;16.50;99.90;;;15.31;100.00;98958.56;10271592;28;97758;-96
2023/08/30 03:58:52;;;;;;;11.57;7.63;;;16.50;99.90;;;15.32;100.00;98959.38;10276259;28;96751;-90
2023/08/30 04:03:56;;;;;;;12.73;8.98;;;16.50;99.90;;;15.33;100.00;98969.03;10281762;28;96765;-87
2023/08/30 04:09:01;;;;;;;12.95;8.65;;;16.50;99.90;;;15.35;100.00;98986.47;10278687;28;97400;-88
2023/08/30 04:14:04;;;;;;;11.23;8.07;;;16.50;99.90;;;15.35;100.00;98981.13;10298797;28;97062;-90
2023/08/30 04:19:08;;;;;;;11.20;7.88;;;16.50;99.90;;;15.44;100.00;98986.97;10279147;28;97768;-89
2023/08/30 04:24:11;;;;;;;9.85;7.95;;;16.60;99.90;;;15.47;100.00;98981.16;10290910;28;98615;-91
2023/08/30 04:29:15;;;;;;;9.05;7.22;;;16.70;99.90;;;15.50;100.00;98983.38;10268359;28;96527;-91
2023/08/30 04:34:18;;;;;;;10.23;6.25;;;16.70;99.90;;;15.53;100.00;98994.47;10295553;28;97481;-91
2023/08/30 04:39:22;;;;;;;7.85;6.10;;;16.80;99.90;;;15.58;100.00;99019.72;10281777;28;96512;-91
2023/08/30 04:44:27;;;;;;;11.20;6.95;;;16.80;99.90;;;15.60;100.00;99021.16;10280197;28;96549;-92
2023/08/30 04:49:31;;;;;;;9.52;7.32;;;16.80;99.90;;;15.59;100.00;99007.97;10271622;28;98427;-91
2023/08/30 04:54:35;;;;;;;12.00;8.52;;;16.80;99.90;;;15.60;100.00;99020.34;10279284;28;97316;-90
2023/08/30 04:59:39;;;;;;;11.65;8.93;;;16.80;99.90;;;15.63;100.00;99009.19;10297893;28;96613;-90
2023/08/30 05:04:43;;;;;;;12.40;8.30;;;16.80;99.90;;;15.68;100.00;99017.34;10277062;28;97393;-92
2023/08/30 05:09:47;;;;;;;16.23;9.38;;;16.90;99.90;;;15.72;100.00;99018.53;10265588;28;96676;-91
2023/08/30 05:14:50;;;;;;;11.85;8.15;;;16.90;99.90;;;15.78;100.00;99022.97;10280729;28;96772;-91
2023/08/30 05:19:54;;;;;;;14.45;8.35;;;17.00;99.90;;;15.84;100.00;99029.25;10263626;28;96896;-90
2023/08/30 05:24:58;;;;;;;11.82;8.30;;;17.00;99.90;;;15.86;100.00;99016.44;10261539;28;97003;-89
2023/08/30 05:30:03;;;;;;;10.57;8.38;;;17.10;99.90;;;15.95;100.00;99028.44;10271612;28;96897;-89
2023/08/30 05:35:07;;;;;;;10.95;8.30;;;17.10;99.90;;;15.98;100.00;99022.63;10305586;28;96626;-88
2023/08/30 05:40:15;;;;;;;11.00;8.45;;;17.20;99.90;;;16.02;100.00;99029.16;10289057;28;98300;-89
2023/08/30 05:45:18;;;;;;;12.15;8.45;;;17.20;99.90;;;16.05;100.00;99026.81;10276917;28;97349;-89
2023/08/30 05:50:22;;;;;;;8.07;6.88;;;17.20;99.90;;;16.19;100.00;99027.44;10285176;28;96492;-90
2023/08/30 05:55:26;;;;;;;8.07;6.45;;;17.40;99.90;;;16.25;100.00;99013.09;10287982;28;98894;-89
2023/08/30 06:00:29;;;;;;;6.68;5.68;;;17.50;99.90;;;16.38;100.00;99036.19;10295638;28;96677;-89
2023/08/30 06:05:34;;;;;;;8.35;6.40;;;17.60;99.90;;;16.47;100.00;99028.59;10296159;28;96594;-91
2023/08/30 06:10:38;;;;;;;7.57;6.18;;;17.70;99.90;;;16.57;100.00;99031.50;10276698;28;96806;-90
2023/08/30 06:15:44;;;;;;;7.55;5.93;;;17.80;99.90;;;16.60;100.00;99029.13;10288651;28;97238;-89
2023/08/30 06:20:48;;;;;;;7.20;5.88;;;17.90;99.90;;;16.69;100.00;99024.25;10280469;28;96504;-91
2023/08/30 06:25:59;;;;;;;6.65;5.55;;;17.90;99.90;;;16.75;100.00;99038.63;10260792;28;96746;-91
2023/08/30 06:31:03;;;;;;;6.25;5.25;;;18.00;99.90;;;16.87;100.00;99043.97;10264885;28;98061;-91
2023/08/30 06:36:06;;;;;;;6.85;5.30;;;18.10;99.90;;;16.91;100.00;99043.22;10288872;28;96675;-92
2023/08/30 06:41:11;;;;;;;8.60;5.55;;;18.20;99.90;;;16.98;100.00;99043.13;10300793;28;97285;-92
2023/08/30 06:46:15;;;;;;;6.18;5.18;;;18.20;99.90;;;17.13;100.00;99051.47;10278719;28;98374;-93
2023/08/30 06:51:18;;;;;;;8.82;5.30;;;18.40;99.90;;;17.30;100.00;99060.41;10280964;28;98339;-94
2023/08/30 06:56:22;;;;;;;7.25;4.57;;;18.60;99.90;;;17.41;100.00;99058.72;10262174;28;97216;-90
2023/08/30 07:01:26;;;;;;;5.22;4.45;;;18.80;99.90;;;17.53;100.00;99056.00;10262599;28;97385;-92
2023/08/30 07:06:30;;;;;;;7.28;4.65;;;18.90;99.90;;;17.66;100.00;99042.25;10272309;28;97433;-93
2023/08/30 07:11:34;;;;;;;4.28;3.78;;;19.00;99.90;;;17.85;100.00;99049.06;10294484;28;97979;-95
2023/08/30 07:16:38;;;;;;;4.00;3.17;;;19.20;99.90;;;18.00;100.00;99037.75;10292338;28;97490;-94
2023/08/30 07:21:45;;;;;;;6.68;5.10;;;19.40;99.90;;;18.14;100.00;99038.25;10262880;28;96711;-96
2023/08/30 07:26:48;;;;;;;5.70;4.60;;;19.50;99.90;;;18.19;100.00;99036.44;10283732;28;96766;-94
2023/08/30 07:31:53;;;;;;;5.72;4.75;;;19.60;99.90;;;18.24;100.00;99040.28;10264318;28;96588;-95
2023/08/30 07:36:57;;;;;;;6.13;4.88;;;19.60;99.90;;;18.24;100.00;99040.28;10266852;28;98440;-96
2023/08/30 07:42:00;;;;;;;6.68;5.15;;;19.60;99.90;;;18.25;100.00;99048.09;10283018;28;96751;-96
2023/08/30 07:47:04;;;;;;;6.03;4.75;;;19.60;99.90;;;18.27;100.00;99053.22;10295539;28;96454;-95
2023/08/30 07:52:10;;;;;;;7.90;4.70;;;19.60;99.90;;;18.34;100.00;99048.47;10278262;28;96848;-94
2023/08/30 07:57:15;;;;;;;4.72;4.15;;;19.70;99.90;;;18.38;100.00;99058.50;10287392;28;96588;-96
2023/08/30 08:02:27;;;;;;;6.28;5.10;;;19.80;99.90;;;18.38;100.00;99061.19;10315206;27;96449;-96
2023/08/30 08:14:04;;;;;;;7.50;5.50;;;19.80;99.90;;;18.33;99.71;99076.44;10338269;28;96377;-95
2023/08/30 08:19:56;;;;;;;8.52;6.25;;;19.70;99.90;;;18.39;100.00;99076.28;10348212;28;96366;-94
2023/08/30 08:25:31;;;;;;;5.88;5.15;;;19.70;99.90;;;18.41;99.83;99076.00;10340463;28;95783;-94
2023/08/30 08:32:26;;;;;;;7.30;5.13;;;19.80;99.90;;;18.40;98.76;99075.22;10315756;28;96343;-94
2023/08/30 08:38:11;;;;;;;6.45;5.70;;;19.70;99.90;;;18.37;98.38;99088.34;10342171;28;96284;-93
2023/08/30 08:43:19;;;;;;;7.95;6.40;;;19.70;99.90;;;18.27;98.88;99090.88;10282786;28;97027;-93
2023/08/30 08:48:25;;;;;;;10.80;6.78;;;19.50;99.90;;;18.21;98.98;99084.59;10272778;28;98011;-93
2023/08/30 08:53:29;;;;;;;9.95;6.40;;;19.50;99.90;;;18.24;99.77;99084.13;10263772;28;98228;-88
2023/08/30 08:58:33;;;;;;;7.90;6.45;;;19.50;99.90;;;18.25;99.74;99077.69;10248769;28;97349;-90
2023/08/30 09:03:37;;;;;;;7.60;6.32;;;19.50;99.90;;;18.29;100.00;99080.66;10269081;28;96965;-93
2023/08/30 09:08:41;;;;;;;8.88;6.47;;;19.50;99.90;;;18.37;99.82;99096.41;10274302;28;97011;-96
2023/08/30 09:13:45;;;;;;;8.23;6.13;;;19.60;99.90;;;18.33;98.46;99098.75;10276045;28;96803;-95
2023/08/30 09:19:02;;;;;;;7.03;5.70;;;19.60;99.90;;;18.32;98.17;99099.84;10255876;28;96901;-89
2023/08/30 09:24:14;;;;;;;6.35;5.13;;;19.60;99.90;;;18.35;98.67;99096.66;10252300;28;96627;-89
2023/08/30 09:29:20;;;;;;;6.95;5.22;;;19.60;99.90;;;18.42;98.22;99101.88;10273728;28;97009;-90
2023/08/30 09:34:25;;;;;;;7.22;5.35;;;19.70;99.90;;;18.44;97.14;99111.31;10238799;28;96821;-89
2023/08/30 09:39:29;;;;;;;8.80;5.53;;;19.70;99.90;;;18.53;98.04;99110.91;10239812;28;96539;-89
2023/08/30 09:44:33;;;;;;;8.60;5.63;;;19.80;99.90;;;18.65;97.91;99107.06;10288757;28;96666;-89
2023/08/30 09:49:45;;;;;;;9.75;5.95;;;19.90;99.90;;;18.70;96.71;99114.41;10261402;28;96790;-88
2023/08/30 09:54:49;;;;;;;9.23;6.35;;;19.90;99.90;;;18.77;96.32;99125.81;10282667;28;98288;-90
2023/08/30 09:59:54;;;;;;;8.13;6.00;;;20.00;99.90;;;18.82;96.33;99117.00;10267002;28;97327;-88
2023/08/30 10:04:58;;;;;;;7.18;5.68;;;20.10;99.90;;;19.04;96.39;99115.16;10256052;28;97042;-94
2023/08/30 10:10:04;;;;;;;8.43;5.55;;;20.30;99.90;;;19.19;95.21;99111.84;10272259;28;96564;-88
2023/08/30 10:15:13;;;;;;;9.23;5.57;;;20.40;99.90;;;19.38;93.61;99121.25;10278151;28;96992;-94
2023/08/30 10:20:18;;;;;;;8.23;5.35;;;20.60;99.90;;;19.48;92.05;99115.16;10261402;28;97186;-96
2023/08/30 10:25:27;;;;;;;8.38;5.90;;;20.70;99.90;;;19.47;90.61;99108.94;10277410;28;96743;-94
2023/08/30 10:30:32;;;;;;;7.10;5.88;;;20.70;99.90;;;19.48;90.21;99117.84;10283092;28;96874;-94
2023/08/30 10:35:51;;;;;;;5.07;4.53;;;20.70;99.90;;;19.59;91.18;99116.13;10290625;28;97309;-91
2023/08/30 10:41:05;;;;;;;5.45;4.43;;;20.80;99.90;;;19.81;89.79;99114.22;10261364;28;98300;-90
2023/08/30 10:46:11;;;;;;;6.38;4.65;;;21.10;99.90;;;19.84;87.98;99108.28;10268394;28;97525;-87
2023/08/30 10:51:36;;;;;;;5.15;4.18;;;21.10;99.90;;;19.77;86.78;99103.09;10269734;28;97187;-90
2023/08/30 10:56:59;;;;;;;6.22;3.45;;;21.10;99.90;;;20.09;87.54;99113.13;10278459;28;98644;-91
2023/08/30 11:02:06;;;;;;;3.58;2.88;;;21.30;99.90;;;20.30;84.54;99108.72;10277053;28;96756;-88
2023/08/30 11:07:11;;;;;;;3.75;2.20;;;21.50;99.90;;;20.53;84.87;99113.78;10283780;28;97959;-91
2023/08/30 11:12:22;;;;;;;3.95;2.40;;;21.70;99.90;;;20.79;83.62;99100.44;10264960;28;96634;-88
2023/08/30 11:17:27;;;;;;;3.72;2.50;;;22.00;99.90;;;20.87;81.47;99099.13;10261728;28;97886;-91
2023/08/30 11:22:31;;;;;;;3.22;2.75;;;22.20;99.90;;;20.91;81.44;99101.03;10261559;28;97475;-89
2023/08/30 11:27:34;;;;;;;3.78;2.55;;;22.20;99.90;;;20.87;80.61;99093.72;10263161;28;97367;-89
2023/08/30 11:32:41;;;;;;;3.17;2.88;;;22.20;99.90;;;20.95;81.66;99094.06;10279870;28;97158;-89
2023/08/30 11:37:46;;;;;;;4.40;3.13;;;22.20;99.90;;;21.15;82.23;99095.22;10251312;28;96683;-90
2023/08/30 11:42:50;;;;;;;4.10;3.15;;;22.40;99.90;;;21.17;80.04;99087.66;10299691;28;96790;-93
2023/08/30 11:47:54;;;;;;;4.32;3.65;;;22.50;99.90;;;21.31;79.38;99095.06;10272219;28;97875;-95
2023/08/30 11:52:58;;;;;;;4.90;3.50;;;22.60;99.70;;;21.37;78.66;99101.28;10279819;28;96819;-90
2023/08/30 11:58:02;;;;;;;3.97;3.22;;;22.80;99.40;;;21.34;79.33;99089.09;10288958;28;99124;-89
2023/08/30 12:03:06;;;;;;;3.88;2.97;;;22.80;99.30;;;21.35;77.25;99087.22;10282594;28;97636;-89
2023/08/30 12:08:24;;;;;;;3.50;2.65;;;22.70;98.90;;;21.21;77.95;99080.66;10273379;28;97695;-88
2023/08/30 12:13:34;;;;;;;3.83;2.90;;;22.50;98.70;;;21.32;77.54;99075.06;10267093;28;98039;-92
2023/08/30 12:18:38;;;;;;;4.20;2.70;;;22.60;98.80;;;21.46;76.73;99086.16;10237715;28;96988;-93
2023/08/30 12:23:41;;;;;;;3.15;2.70;;;22.80;98.80;;;21.46;74.10;99086.16;10266442;28;96956;-90
2023/08/30 12:28:45;;;;;;;3.03;2.40;;;22.90;97.70;;;21.60;76.53;99081.91;10252902;28;96823;-96
2023/08/30 12:33:49;;;;;;;3.38;2.50;;;22.90;98.00;;;21.76;74.70;99090.81;10256576;28;100871;-93
2023/08/30 12:38:53;;;;;;;3.30;2.40;;;23.10;97.60;;;21.92;74.60;99089.78;10280952;28;96484;-93
2023/08/30 12:43:56;;;;;;;6.57;2.40;;;23.20;97.40;;;22.07;73.59;99072.75;10274668;28;97402;-92
2023/08/30 12:49:01;;;;;;;2.95;2.10;;;23.20;97.30;;;22.23;73.13;99079.00;10278079;28;97432;-93
2023/08/30 12:54:05;;;;;;;3.60;2.40;;;23.40;96.90;;;22.31;70.62;99070.34;10277849;28;96553;-93
2023/08/30 12:59:08;;;;;;;4.57;2.55;;;23.60;96.30;;;21.97;70.39;99061.94;10296233;28;96661;-96
2023/08/30 13:04:12;;;;;;;4.32;2.78;;;23.40;95.70;;;21.76;71.28;99058.38;10290255;28;96569;-91
2023/08/30 13:09:15;;;;;;;3.67;2.80;;;23.10;95.90;;;21.67;71.85;99064.59;10259165;28;96829;-91
2023/08/30 13:14:19;;;;;;;3.35;2.78;;;22.90;96.10;;;21.57;73.19;99070.78;10281378;28;97023;-93
2023/08/30 13:19:22;;;;;;;2.60;2.00;;;22.80;96.60;;;21.50;74.53;99059.44;10272730;28;96997;-95
2023/08/30 13:24:27;;;;;;;3.53;2.25;;;22.70;96.90;;;21.49;72.25;99079.44;10261398;28;98914;-91
2023/08/30 13:29:31;;;;;;;3.33;2.38;;;22.70;96.40;;;21.35;72.85;99066.44;10265399;28;97210;-91
2023/08/30 13:34:34;;;;;;;2.75;1.67;;;22.60;96.50;;;21.38;72.87;99071.28;10267106;28;98182;-93
2023/08/30 13:39:39;;;;;;;2.45;1.60;;;22.60;96.50;;;21.51;73.63;99079.97;10261388;28;97929;-91
2023/08/30 13:44:43;;;;;;;1.73;1.50;;;22.70;96.70;;;21.69;72.62;99090.28;10257465;28;97623;-91
2023/08/30 13:49:47;;;;;;;2.75;1.40;;;22.80;96.60;;;21.58;70.83;99092.16;10274072;28;98424;-94
2023/08/30 13:54:52;;;;;;;2.47;1.83;;;22.80;95.90;;;21.26;70.87;99075.28;10265684;28;98272;-90
2023/08/30 13:59:55;;;;;;;2.10;1.50;;;22.40;95.80;;;21.07;72.05;99073.03;10266243;28;98100;-94
2023/08/30 14:05:00;;;;;;;2.00;1.55;;;22.30;96.10;;;20.91;72.59;99086.72;10279243;28;97146;-95
2023/08/30 14:10:05;;;;;;;1.60;1.30;;;22.00;96.20;;;21.01;73.97;99087.59;10279470;28;98507;-93
2023/08/30 14:15:09;;;;;;;1.88;1.30;;;22.10;96.80;;;21.15;72.54;99084.41;10285623;28;96652;-93
2023/08/30 14:20:12;;;;;;;2.85;1.27;;;22.40;96.30;;;21.32;73.56;99095.84;10282782;28;96528;-93
2023/08/30 14:25:16;;;;;;;1.60;1.35;;;22.50;96.50;;;21.50;71.36;99092.66;10270845;28;96555;-96
2023/08/30 14:30:21;;;;;;;1.77;1.35;;;23.00;95.70;;;21.30;70.83;99095.31;10259350;28;96589;-95
2023/08/30 14:35:25;;;;;;;1.65;1.33;;;22.80;95.20;;;20.93;72.03;99093.50;10267769;28;97716;-92
2023/08/30 14:40:29;;;;;;;2.20;1.20;;;22.30;95.60;;;20.57;72.49;99096.00;10276220;28;97357;-92
2023/08/30 14:45:32;;;;;;;3.15;1.38;;;21.90;95.90;;;20.42;74.19;99109.34;10244176;28;98519;-93
2023/08/30 14:50:36;;;;;;;1.08;0.88;;;21.60;96.50;;;20.29;74.42;99113.28;10246217;28;97263;-96
2023/08/30 14:55:40;;;;;;;1.30;0.90;;;21.50;96.50;;;20.08;74.97;99122.25;10271407;28;96661;-93
2023/08/30 15:00:49;;;;;;;1.95;0.98;;;21.30;96.80;;;19.90;76.08;99117.25;10298390;28;97481;-96
2023/08/30 15:05:55;;;;;;;1.75;1.10;;;21.20;97.20;;;19.79;77.63;99127.09;10305961;28;96493;-91
2023/08/30 15:10:58;;;;;;;2.15;0.90;;;20.90;97.70;;;19.62;78.96;99129.09;10270974;28;96816;-94
2023/08/30 15:16:02;;;;;;;1.05;0.70;;;20.80;98.00;;;19.54;80.05;99127.63;10260466;28;96842;-93
2023/08/30 15:21:06;;;;;;;1.75;0.85;;;20.70;98.50;;;19.45;80.39;99129.97;10291333;28;98571;-93
2023/08/30 15:26:16;;;;;;;1.10;0.80;;;20.60;98.60;;;19.33;80.92;99123.88;10275000;28;96619;-93
2023/08/30 15:31:19;;;;;;;0.60;0.50;;;20.50;98.80;;;19.29;81.56;99125.44;10271854;28;97900;-94
2023/08/30 15:36:23;;;;;;;1.08;0.70;;;20.40;99.00;;;19.18;81.75;99121.00;10295082;28;96764;-93
2023/08/30 15:41:27;;;;;;;0.88;0.73;;;20.30;99.10;;;19.11;82.67;99131.13;10305343;28;96681;-93
2023/08/30 15:46:30;;;;;;;0.95;0.73;;;20.30;99.40;;;19.08;82.86;99132.47;10280761;28;96593;-93
2023/08/30 15:51:36;;;;;;;2.63;0.93;;;20.30;99.50;;;19.06;83.03;99134.56;10276538;28;96847;-92
2023/08/30 15:56:40;;;;;;;1.05;0.80;;;20.20;99.60;;;19.03;84.03;99127.00;10292598;28;96736;-92
2023/08/30 16:01:44;;;;;;;1.48;0.90;;;20.20;99.80;;;18.97;82.94;99131.50;10262012;28;97028;-91
2023/08/30 16:06:50;;;;;;;1.00;0.93;;;20.20;99.60;;;18.93;82.76;99143.81;10262763;28;96920;-92
2023/08/30 16:11:54;;;;;;;1.27;1.00;;;20.10;99.50;;;18.80;82.64;99136.09;10277941;28;97456;-92
2023/08/30 16:16:57;;;;;;;1.77;1.00;;;20.10;99.50;;;18.85;82.77;99141.56;10264452;28;96760;-91
2023/08/30 16:22:02;;;;;;;1.15;1.00;;;20.00;99.50;;;18.80;82.34;99146.88;10268559;28;97976;-96
2023/08/30 16:27:07;;;;;;;1.15;0.90;;;20.00;99.40;;;18.79;82.47;99150.63;10259291;28;96672;-93
2023/08/30 16:32:12;;;;;;;1.20;1.10;;;20.00;99.50;;;18.74;82.15;99163.19;10253218;28;96528;-93
2023/08/30 16:37:16;;;;;;;2.65;1.13;;;19.90;99.40;;;18.66;82.42;99157.13;10277046;28;98028;-93
2023/08/30 16:42:20;;;;;;;1.50;1.05;;;19.90;99.40;;;18.62;82.97;99164.06;10275166;28;96799;-92
2023/08/30 16:47:24;;;;;;;1.00;0.88;;;19.80;99.50;;;18.60;82.96;99181.53;10262972;28;96512;-91
2023/08/30 16:52:28;;;;;;;2.45;1.10;;;19.80;99.60;;;18.60;83.27;99184.22;10261076;28;96732;-91
2023/08/30 16:57:32;;;;;;;0.90;0.88;;;19.70;99.70;;;18.60;83.76;99186.91;10272909;28;96655;-90
2023/08/30 17:02:36;;;;;;;2.28;1.10;;;19.80;99.80;;;18.61;84.62;99191.22;10301258;28;97987;-90
2023/08/30 17:07:40;;;;;;;1.00;0.90;;;19.80;99.90;;;18.60;84.41;99184.22;10269825;28;97547;-93
2023/08/30 17:12:44;;;;;;;1.20;1.10;;;19.80;99.90;;;18.45;84.14;99155.97;10258660;28;96743;-91
2023/08/30 17:17:47;;;;;;;1.40;1.10;;;19.70;99.90;;;18.43;84.05;99174.25;10266194;28;97795;-91
2023/08/30 17:22:51;;;;;;;1.23;1.10;;;19.70;99.90;;;18.41;84.44;99179.06;10257701;28;96963;-91
2023/08/30 17:27:55;;;;;;;1.15;1.05;;;19.60;99.90;;;18.38;84.77;99176.03;10257644;28;96807;-91
2023/08/30 17:32:59;;;;;;;1.30;1.10;;;19.60;99.90;;;18.35;84.62;99176.50;10250241;28;96618;-91
2023/08/30 17:38:06;;;;;;;1.30;1.02;;;19.60;99.90;;;18.30;83.98;99179.94;10274229;28;96749;-90
2023/08/30 17:43:11;;;;;;;1.70;1.25;;;19.50;99.80;;;18.18;83.87;99181.88;10255728;28;96689;-92
2023/08/30 17:48:15;;;;;;;2.05;1.40;;;19.40;99.80;;;18.13;83.90;99184.47;10253992;28;97490;-93
2023/08/30 17:53:19;;;;;;;2.28;1.50;;;19.40;99.90;;;18.01;84.05;99195.28;10251450;28;99684;-93
2023/08/30 17:58:27;;;;;;;1.52;1.38;;;19.30;99.90;;;17.91;84.65;99201.28;10261621;28;97096;-92
2023/08/30 18:03:31;;;;;;;3.70;1.63;;;19.10;99.90;;;17.78;85.44;99195.38;10268695;28;96701;-93
2023/08/30 18:08:35;;;;;;;3.33;1.60;;;19.00;99.90;;;17.63;86.07;99203.91;10256405;28;98027;-94
2023/08/30 18:13:43;;;;;;;2.63;1.70;;;18.90;99.90;;;17.56;86.21;99208.59;10258084;28;97052;-93
2023/08/30 18:18:49;;;;;;;1.93;1.60;;;18.80;99.90;;;17.48;86.91;99217.84;10270941;28;97142;-91
2023/08/30 18:24:19;;;;;;;2.88;2.17;;;18.70;99.90;;;17.37;87.72;99224.88;10268529;28;98233;-92
2023/08/30 18:29:23;;;;;;;1.60;1.40;;;18.60;99.90;;;17.24;88.26;99214.38;10292908;28;96617;-93
2023/08/30 18:34:29;;;;;;;1.77;1.63;;;18.50;99.90;;;17.28;89.02;99241.59;10251090;28;96570;-91
2023/08/30 18:39:34;;;;;;;2.30;1.77;;;18.50;99.90;;;17.28;89.33;99249.66;10252534;28;96797;-92
2023/08/30 18:44:37;;;;;;;2.38;2.00;;;18.50;99.90;;;17.26;89.44;99259.78;10257016;28;96626;-93
2023/08/30 18:49:41;;;;;;;2.65;2.17;;;18.50;99.90;;;17.21;89.79;99265.84;10270536;28;98368;-90
2023/08/30 18:54:47;;;;;;;2.63;1.90;;;18.50;99.90;;;17.11;90.29;99257.56;10264818;28;96614;-92
2023/08/30 18:59:51;;;;;;;2.55;2.10;;;18.40;99.90;;;17.03;90.85;99261.44;10292657;28;97959;-92
2023/08/30 19:04:54;;;;;;;3.90;2.10;;;18.30;99.90;;;16.95;91.75;99261.75;10287863;28;97350;-93
2023/08/30 19:09:58;;;;;;;3.10;2.33;;;18.20;99.90;;;16.94;92.15;99264.69;10254770;28;96669;-95
2023/08/30 19:15:05;;;;;;;2.28;1.92;;;18.20;99.90;;;16.89;92.99;99256.50;10232853;28;96645;-95
2023/08/30 19:20:09;;;;;;;3.88;1.98;;;18.10;99.90;;;16.84;93.70;99263.38;10292268;28;96784;-95
2023/08/30 19:25:15;;;;;;;3.00;2.08;;;18.10;99.90;;;16.75;93.79;99248.69;10270473;28;97822;-94
2023/08/30 19:30:19;;;;;;;3.08;2.63;;;18.10;99.90;;;16.73;94.38;99268.72;10261968;28;96545;-92
2023/08/30 19:35:23;;;;;;;3.35;2.33;;;18.00;99.90;;;16.67;94.96;99283.84;10284283;28;97097;-94
2023/08/30 19:40:26;;;;;;;3.13;2.72;;;17.90;99.90;;;16.62;95.21;99283.72;10269926;28;96541;-95
2023/08/30 19:45:34;;;;;;;3.60;3.00;;;17.90;99.90;;;16.59;95.39;99281.50;10266012;28;96608;-95
2023/08/30 19:50:37;;;;;;;3.35;3.00;;;17.90;99.90;;;16.58;95.91;99279.84;10281214;28;96475;-96
2023/08/30 19:55:47;;;;;;;3.80;3.08;;;17.80;99.90;;;16.49;96.99;99284.75;10272913;28;96644;-96
2023/08/30 20:01:05;;;;;;;5.45;3.15;;;17.80;99.90;;;16.43;97.68;99272.22;10275223;28;96873;-94
2023/08/30 20:06:08;;;;;;;3.47;3.17;;;17.70;99.90;;;16.37;98.08;99277.69;10292903;28;96519;-96
2023/08/30 20:11:12;;;;;;;3.83;3.40;;;17.70;99.90;;;16.25;99.21;99270.44;10276840;28;98312;-94
2023/08/30 20:16:17;;;;;;;5.13;2.83;;;17.50;99.90;;;16.21;100.00;99271.94;10261931;28;96960;-95
2023/08/30 20:21:20;;;;;;;4.60;3.75;;;17.50;99.90;;;16.13;100.00;99260.69;10287718;28;96638;-95
2023/08/30 20:26:24;;;;;;;5.15;3.97;;;17.40;99.90;;;16.04;100.00;99262.88;10278381;28;97124;-95
2023/08/30 20:31:28;;;;;;;3.90;3.30;;;17.30;99.90;;;15.98;100.00;99263.78;10280778;28;97142;-94
2023/08/30 20:36:32;;;;;;;3.53;3.00;;;17.30;99.90;;;16.02;100.00;99270.34;10278759;28;96776;-95
2023/08/30 20:41:42;;;;;;;4.68;3.17;;;17.30;99.90;;;16.02;100.00;99275.69;10277549;28;96723;-95
2023/08/30 20:46:46;;;;;;;5.95;3.45;;;17.30;99.90;;;16.01;100.00;99282.06;10278365;28;96568;-95
2023/08/30 20:51:49;;;;;;;3.38;2.75;;;17.30;99.90;;;15.97;100.00;99294.31;10287526;28;98654;-94
2023/08/30 20:56:53;;;;;;;5.38;3.30;;;17.30;99.90;;;15.95;100.00;99285.66;10279468;28;96930;-95
2023/08/30 21:01:57;;;;;;;4.15;3.75;;;17.30;99.90;;;15.90;100.00;99280.19;10250778;28;96641;-94
2023/08/30 21:07:01;;;;;;;3.65;3.33;;;17.20;99.90;;;15.82;100.00;99281.28;10249489;28;97643;-94
2023/08/30 21:12:05;;;;;;;5.28;3.25;;;17.20;99.90;;;15.80;100.00;99291.41;10249197;28;96878;-94